createdAt,value
2022-11-10T00:01:10.155Z,68.95
2022-11-10T00:04:16.336Z,68.78
2022-11-10T00:07:26.437Z,68.73
2022-11-10T00:10:33.472Z,68.96
2022-11-10T00:13:58.142Z,68.80
2022-11-10T00:17:04.812Z,68.85
2022-11-10T00:20:12.985Z,68.85
2022-11-10T00:23:19.268Z,69.02
2022-11-10T00:26:26.565Z,68.80
2022-11-10T00:29:33.102Z,68.88
2022-11-10T00:32:39.061Z,68.66
2022-11-10T00:35:45.499Z,68.88
2022-11-10T00:38:52.026Z,68.88
2022-11-10T00:41:58.313Z,68.97
2022-11-10T00:45:05.030Z,68.92
2022-11-10T00:48:11.914Z,68.90
2022-11-10T00:51:25.491Z,69.05
2022-11-10T00:54:31.597Z,68.94
2022-11-10T00:57:37.958Z,69.01
2022-11-10T01:00:44.265Z,69.12
2022-11-10T01:03:51.505Z,68.87
2022-11-10T01:06:57.369Z,68.92
2022-11-10T01:10:04.297Z,68.91
2022-11-10T01:13:10.816Z,68.66
2022-11-10T01:16:19.454Z,68.93
2022-11-10T01:19:44.631Z,68.89
2022-11-10T01:22:51.297Z,68.82
2022-11-10T01:26:08.208Z,68.92
2022-11-10T01:29:14.469Z,68.73
2022-11-10T01:32:20.575Z,68.89
2022-11-10T01:35:26.739Z,68.86
2022-11-10T01:38:35.715Z,68.95
2022-11-10T01:41:41.909Z,68.80
2022-11-10T01:45:25.304Z,68.96
2022-11-10T01:48:44.184Z,69.08
2022-11-10T01:52:00.713Z,68.95
2022-11-10T01:55:07.255Z,69.06
2022-11-10T01:58:16.614Z,69.13
2022-11-10T02:01:23.703Z,69.14
2022-11-10T02:04:30.504Z,68.97
2022-11-10T02:07:36.745Z,69.02
2022-11-10T02:10:42.954Z,68.89
2022-11-10T02:13:49.435Z,69.01
2022-11-10T02:16:56.280Z,68.87
2022-11-10T02:20:06.931Z,68.92
2022-11-10T02:23:34.451Z,68.83
2022-11-10T02:26:46.770Z,68.83
2022-11-10T02:29:53.183Z,69.03
2022-11-10T02:32:59.256Z,68.79
2022-11-10T02:36:05.569Z,68.84
2022-11-10T02:39:11.821Z,68.99
2022-11-10T02:42:18.100Z,69.13
2022-11-10T02:45:24.706Z,69.06
2022-11-10T02:48:31.367Z,69.15
2022-11-10T02:51:37.732Z,69.21
2022-11-10T02:54:44.164Z,69.04
2022-11-10T02:57:50.968Z,69.27
2022-11-10T03:00:57.287Z,69.31
2022-11-10T03:04:05.980Z,69.22
2022-11-10T03:07:12.198Z,69.16
2022-11-10T03:10:18.622Z,69.28
2022-11-10T03:13:32.253Z,69.22
2022-11-10T03:16:51.428Z,69.20
2022-11-10T03:19:57.926Z,69.01
2022-11-10T03:23:05.731Z,69.17
2022-11-10T03:26:11.916Z,69.32
2022-11-10T03:29:18.825Z,69.38
2022-11-10T03:32:25.250Z,69.22
2022-11-10T03:35:32.050Z,69.36
2022-11-10T03:38:38.391Z,69.19
2022-11-10T03:41:44.624Z,69.17
2022-11-10T03:44:50.872Z,69.07
2022-11-10T03:47:56.953Z,69.17
2022-11-10T03:51:03.662Z,68.88
2022-11-10T03:54:09.691Z,69.00
2022-11-10T03:57:16.222Z,69.07
2022-11-10T04:00:22.235Z,69.01
2022-11-10T04:03:28.673Z,69.06
2022-11-10T04:06:53.760Z,69.21
2022-11-10T04:10:00.141Z,69.23
2022-11-10T04:13:25.217Z,69.22
2022-11-10T04:16:31.616Z,69.26
2022-11-10T04:19:38.110Z,69.14
2022-11-10T04:23:02.467Z,69.09
2022-11-10T04:26:28.974Z,68.92
2022-11-10T04:29:34.952Z,68.99
2022-11-10T04:32:41.034Z,68.83
2022-11-10T04:35:47.297Z,69.09
2022-11-10T04:38:55.337Z,68.98
2022-11-10T04:42:03.059Z,69.04
2022-11-10T04:45:10.050Z,69.28
2022-11-10T04:48:16.285Z,69.23
2022-11-10T04:51:25.413Z,69.15
2022-11-10T04:54:31.368Z,69.29
2022-11-10T04:57:37.431Z,69.27
2022-11-10T05:00:43.583Z,69.10
2022-11-10T05:03:50.543Z,69.03
2022-11-10T05:06:57.228Z,69.17
2022-11-10T05:10:04.696Z,69.38
2022-11-10T05:13:11.540Z,69.48
2022-11-10T05:16:17.731Z,69.26
2022-11-10T05:19:23.610Z,69.42
2022-11-10T05:22:29.668Z,69.35
2022-11-10T05:25:38.198Z,69.27
2022-11-10T05:28:45.896Z,69.25
2022-11-10T05:31:52.129Z,69.24
2022-11-10T05:34:58.063Z,69.19
2022-11-10T05:38:05.194Z,69.20
2022-11-10T05:41:11.811Z,69.03
2022-11-10T05:44:18.022Z,68.96
2022-11-10T05:47:24.193Z,68.92
2022-11-10T05:50:30.353Z,69.03
2022-11-10T05:53:36.712Z,68.99
2022-11-10T05:56:42.754Z,68.76
2022-11-10T05:59:49.339Z,68.58
2022-11-10T06:03:02.971Z,68.37
2022-11-10T06:06:09.222Z,68.58
2022-11-10T06:09:15.405Z,68.53
2022-11-10T06:12:21.928Z,68.37
2022-11-10T06:15:28.067Z,68.26
2022-11-10T06:18:34.096Z,67.99
2022-11-10T06:21:40.142Z,68.29
2022-11-10T06:24:46.848Z,68.10
2022-11-10T06:27:52.763Z,68.09
2022-11-10T06:30:59.293Z,68.19
2022-11-10T06:34:05.617Z,67.95
2022-11-10T06:37:11.721Z,68.05
2022-11-10T06:40:17.564Z,68.05
2022-11-10T06:43:24.169Z,67.96
2022-11-10T06:46:30.522Z,67.69
2022-11-10T06:49:36.522Z,67.69
2022-11-10T06:52:42.417Z,67.77
2022-11-10T06:55:48.590Z,67.90
2022-11-10T06:58:54.477Z,67.77
2022-11-10T07:02:00.555Z,67.49
2022-11-10T07:05:06.721Z,67.64
2022-11-10T07:08:16.481Z,67.68
2022-11-10T07:11:22.508Z,67.38
2022-11-10T07:14:28.507Z,67.18
2022-11-10T07:17:41.726Z,66.83
2022-11-10T07:20:47.718Z,66.82
2022-11-10T07:23:53.979Z,66.81
2022-11-10T07:27:00.664Z,66.82
2022-11-10T07:30:07.713Z,66.76
2022-11-10T07:33:14.848Z,66.83
2022-11-10T07:36:20.726Z,66.07
2022-11-10T07:39:26.640Z,65.93
2022-11-10T07:42:32.673Z,65.66
2022-11-10T07:45:39.137Z,65.10
2022-11-10T07:48:45.285Z,65.23
2022-11-10T07:51:51.521Z,65.20
2022-11-10T07:54:58.031Z,65.19
2022-11-10T07:58:04.866Z,65.39
2022-11-10T08:01:11.032Z,65.34
2022-11-10T08:04:17.371Z,65.52
2022-11-10T08:07:23.490Z,65.52
2022-11-10T08:10:30.509Z,65.63
2022-11-10T08:13:36.458Z,65.47
2022-11-10T08:16:42.350Z,65.21
2022-11-10T08:19:48.174Z,65.30
2022-11-10T08:23:02.904Z,65.41
2022-11-10T08:26:09.210Z,65.39
2022-11-10T08:29:15.178Z,65.44
2022-11-10T08:32:21.354Z,65.40
2022-11-10T08:35:30.521Z,65.33
2022-11-10T08:38:36.701Z,65.23
2022-11-10T08:41:42.715Z,65.27
2022-11-10T08:44:48.849Z,65.26
2022-11-10T08:48:02.779Z,65.05
2022-11-10T08:51:09.228Z,65.02
2022-11-10T08:54:15.233Z,64.70
2022-11-10T08:57:21.214Z,64.45
2022-11-10T09:00:28.805Z,64.43
2022-11-10T09:03:35.285Z,64.28
2022-11-10T09:06:42.926Z,64.04
2022-11-10T09:10:05.914Z,64.04
2022-11-10T09:13:15.129Z,63.86
2022-11-10T09:16:21.503Z,64.09
2022-11-10T09:19:27.429Z,64.13
2022-11-10T09:22:36.014Z,64.05
2022-11-10T09:25:43.648Z,63.80
2022-11-10T09:28:50.543Z,63.73
2022-11-10T09:31:56.599Z,63.60
2022-11-10T09:35:03.890Z,63.34
2022-11-10T09:38:09.954Z,63.22
2022-11-10T09:41:16.204Z,63.06
2022-11-10T09:44:29.632Z,62.95
2022-11-10T09:48:00.516Z,63.31
2022-11-10T09:51:17.116Z,63.38
2022-11-10T09:54:33.580Z,63.49
2022-11-10T09:57:47.712Z,63.54
2022-11-10T10:01:05.471Z,63.56
2022-11-10T10:04:20.431Z,63.61
2022-11-10T10:07:48.644Z,63.68
2022-11-10T10:10:57.624Z,63.63
2022-11-10T10:14:39.395Z,63.20
2022-11-10T10:18:25.737Z,63.33
2022-11-10T10:21:51.396Z,63.36
2022-11-10T10:25:02.147Z,63.36
2022-11-10T10:28:20.032Z,63.17
2022-11-10T10:31:32.690Z,63.23
2022-11-10T10:34:39.594Z,63.10
2022-11-10T10:37:51.185Z,62.83
2022-11-10T10:41:03.490Z,62.83
2022-11-10T10:44:19.113Z,62.51
2022-11-10T10:47:37.478Z,62.60
2022-11-10T10:50:43.631Z,62.78
2022-11-10T10:53:49.878Z,62.84
2022-11-10T10:57:05.143Z,62.56
2022-11-10T11:00:22.030Z,62.40
2022-11-10T11:03:50.109Z,62.57
2022-11-10T11:07:02.769Z,62.72
2022-11-10T11:10:24.325Z,62.67
2022-11-10T11:13:30.397Z,62.61
2022-11-10T11:16:56.654Z,62.42
2022-11-10T11:20:03.181Z,62.72
2022-11-10T11:23:15.229Z,62.92
2022-11-10T11:26:59.517Z,62.53
2022-11-10T11:30:10.668Z,62.56
2022-11-10T11:33:19.737Z,62.51
2022-11-10T11:36:39.121Z,62.89
2022-11-10T11:39:50.977Z,63.06
2022-11-10T11:43:08.310Z,63.00
2022-11-10T11:46:43.655Z,62.92
2022-11-10T11:50:35.631Z,63.12
2022-11-10T11:54:02.794Z,63.16
2022-11-10T11:57:46.630Z,63.28
2022-11-10T12:00:59.921Z,63.37
2022-11-10T12:04:30.986Z,63.07
2022-11-10T12:08:01.915Z,63.24
2022-11-10T12:11:38.878Z,63.27
2022-11-10T12:15:16.833Z,63.26
2022-11-10T12:18:36.333Z,63.25
2022-11-10T12:21:49.139Z,63.12
2022-11-10T12:25:01.660Z,62.99
2022-11-10T12:28:17.336Z,63.15
2022-11-10T12:31:26.678Z,63.10
2022-11-10T12:34:56.882Z,63.06
2022-11-10T12:38:21.738Z,63.04
2022-11-10T12:41:35.923Z,63.47
2022-11-10T12:44:54.348Z,63.60
2022-11-10T12:48:02.726Z,63.56
2022-11-10T12:51:25.787Z,63.63
2022-11-10T12:54:31.753Z,63.57
2022-11-10T12:57:38.418Z,63.76
2022-11-10T13:00:56.619Z,63.76
2022-11-10T13:04:03.138Z,64.03
2022-11-10T13:07:13.656Z,63.88
2022-11-10T13:10:26.431Z,63.81
2022-11-10T13:13:52.234Z,63.91
2022-11-10T13:17:00.434Z,64.16
2022-11-10T13:20:44.632Z,64.01
2022-11-10T13:23:50.425Z,64.17
2022-11-10T13:26:57.473Z,64.21
2022-11-10T13:30:03.701Z,64.38
2022-11-10T13:33:35.128Z,64.39
2022-11-10T13:36:43.686Z,64.40
2022-11-10T13:39:50.513Z,64.47
2022-11-10T13:42:59.556Z,64.58
2022-11-10T13:46:05.831Z,64.56
2022-11-10T13:49:33.514Z,64.53
2022-11-10T13:52:56.701Z,64.41
2022-11-10T13:56:08.507Z,64.34
2022-11-10T13:59:21.089Z,64.59
2022-11-10T14:02:39.305Z,64.76
2022-11-10T14:06:07.891Z,64.84
2022-11-10T14:09:26.966Z,64.93
2022-11-10T14:12:55.761Z,64.99
2022-11-10T14:16:02.387Z,65.04
2022-11-10T14:19:14.396Z,65.11
2022-11-10T14:22:37.981Z,65.04
2022-11-10T14:25:45.069Z,65.09
2022-11-10T14:28:51.482Z,65.14
2022-11-10T14:32:12.268Z,65.17
2022-11-10T14:35:28.108Z,65.24
2022-11-10T14:38:35.872Z,65.21
2022-11-10T14:41:49.403Z,65.15
2022-11-10T14:45:13.806Z,65.25
2022-11-10T14:48:25.800Z,65.36
2022-11-10T14:51:34.855Z,65.33
2022-11-10T14:54:46.067Z,65.27
2022-11-10T14:58:08.208Z,65.49
2022-11-10T15:01:27.722Z,65.51
2022-11-10T15:04:36.558Z,65.50
2022-11-10T15:07:44.987Z,65.64
2022-11-10T15:10:56.460Z,65.60
2022-11-10T15:14:02.750Z,65.56
2022-11-10T15:17:11.249Z,65.70
2022-11-10T15:20:38.656Z,65.83
2022-11-10T15:23:52.457Z,65.77
2022-11-10T15:26:58.571Z,65.86
2022-11-10T15:30:23.051Z,65.83
2022-11-10T15:33:34.267Z,65.77
2022-11-10T15:36:40.430Z,65.81
2022-11-10T15:39:46.548Z,65.78
2022-11-10T15:43:28.033Z,65.74
2022-11-10T15:46:34.536Z,65.96
2022-11-10T15:49:41.212Z,66.01
2022-11-10T15:52:47.310Z,65.92
2022-11-10T15:55:53.428Z,66.00
2022-11-10T15:59:02.404Z,65.99
2022-11-10T16:02:20.264Z,65.97
2022-11-10T16:05:26.202Z,66.16
2022-11-10T16:08:32.335Z,66.11
2022-11-10T16:11:40.637Z,66.15
2022-11-10T16:14:49.812Z,66.09
2022-11-10T16:17:55.951Z,66.30
2022-11-10T16:21:02.075Z,66.27
2022-11-10T16:24:08.190Z,66.15
2022-11-10T16:27:14.959Z,66.17
2022-11-10T16:30:21.174Z,66.37
2022-11-10T16:33:29.140Z,66.49
2022-11-10T16:36:36.597Z,66.49
2022-11-10T16:39:42.827Z,66.48
2022-11-10T16:42:51.472Z,66.47
2022-11-10T16:46:00.384Z,66.53
2022-11-10T16:49:15.193Z,66.33
2022-11-10T16:52:22.717Z,66.40
2022-11-10T16:55:29.527Z,66.47
2022-11-10T16:58:35.951Z,66.59
2022-11-10T17:01:44.260Z,66.55
2022-11-10T17:04:50.561Z,66.68
2022-11-10T17:07:58.857Z,66.67
2022-11-10T17:11:05.238Z,66.71
2022-11-10T17:14:13.067Z,66.78
2022-11-10T17:17:20.061Z,66.69
2022-11-10T17:20:34.511Z,66.73
2022-11-10T17:23:40.971Z,66.58
2022-11-10T17:26:47.800Z,66.42
2022-11-10T17:29:54.117Z,66.65
2022-11-10T17:33:05.099Z,66.51
2022-11-10T17:36:15.827Z,66.60
2022-11-10T17:39:22.695Z,66.61
2022-11-10T17:42:29.014Z,66.56
2022-11-10T17:45:35.405Z,66.59
2022-11-10T17:48:42.074Z,66.79
2022-11-10T17:51:48.206Z,66.74
2022-11-10T17:54:54.663Z,66.95
2022-11-10T17:58:01.216Z,67.10
2022-11-10T18:01:19.096Z,66.99
2022-11-10T18:04:26.476Z,67.09
2022-11-10T18:07:33.220Z,67.06
2022-11-10T18:10:46.446Z,67.20
2022-11-10T18:13:52.571Z,67.20
2022-11-10T18:16:58.619Z,67.19
2022-11-10T18:20:05.643Z,67.12
2022-11-10T18:23:12.694Z,67.22
2022-11-10T18:26:18.684Z,67.05
2022-11-10T18:29:24.783Z,67.28
2022-11-10T18:32:30.807Z,67.33
2022-11-10T18:35:39.301Z,67.17
2022-11-10T18:38:45.451Z,67.26
2022-11-10T18:41:52.654Z,67.35
2022-11-10T18:44:58.819Z,67.17
2022-11-10T18:48:05.384Z,67.35
2022-11-10T18:51:11.710Z,67.34
2022-11-10T18:54:18.111Z,67.38
2022-11-10T18:57:24.209Z,67.50
2022-11-10T19:00:30.548Z,67.63
2022-11-10T19:03:37.089Z,67.67
2022-11-10T19:06:43.126Z,67.54
2022-11-10T19:09:49.421Z,67.38
2022-11-10T19:12:56.020Z,67.24
2022-11-10T19:16:09.944Z,67.22
2022-11-10T19:19:16.384Z,67.23
2022-11-10T19:22:22.754Z,67.41
2022-11-10T19:25:29.780Z,67.34
2022-11-10T19:28:37.269Z,67.33
2022-11-10T19:31:44.196Z,67.48
2022-11-10T19:34:50.577Z,67.61
2022-11-10T19:37:56.862Z,67.66
2022-11-10T19:41:06.222Z,67.74
2022-11-10T19:44:12.611Z,67.53
2022-11-10T19:47:18.559Z,67.49
2022-11-10T19:50:24.533Z,67.77
2022-11-10T19:53:31.725Z,67.69
2022-11-10T19:56:37.707Z,67.35
2022-11-10T19:59:43.921Z,67.52
2022-11-10T20:02:52.068Z,67.62
2022-11-10T20:06:00.832Z,67.37
2022-11-10T20:09:06.776Z,67.39
2022-11-10T20:12:13.193Z,67.65
2022-11-10T20:15:19.475Z,67.57
2022-11-10T20:18:25.872Z,67.58
2022-11-10T20:21:32.046Z,67.63
2022-11-10T20:24:38.524Z,67.47
2022-11-10T20:27:44.884Z,67.36
2022-11-10T20:30:51.239Z,67.28
2022-11-10T20:33:57.895Z,67.30
2022-11-10T20:37:04.304Z,67.08
2022-11-10T20:40:42.248Z,67.19
2022-11-10T20:43:40.132Z,67.22
2022-11-10T20:46:54.484Z,67.42
2022-11-10T20:50:01.076Z,67.49
2022-11-10T20:53:07.418Z,67.47
2022-11-10T20:56:15.657Z,67.48
2022-11-10T20:59:22.022Z,67.40
2022-11-10T21:02:28.130Z,67.36
2022-11-10T21:05:34.749Z,67.19
2022-11-10T21:08:41.090Z,67.12
2022-11-10T21:12:06.126Z,67.11
2022-11-10T21:15:12.444Z,67.10
2022-11-10T21:18:19.586Z,66.94
2022-11-10T21:21:28.063Z,67.18
2022-11-10T21:24:34.514Z,66.91
2022-11-10T21:27:40.973Z,66.97
2022-11-10T21:30:47.464Z,66.93
2022-11-10T21:33:57.909Z,66.99
2022-11-10T21:37:04.009Z,67.20
2022-11-10T21:40:11.436Z,67.13
2022-11-10T21:43:17.527Z,66.93
2022-11-10T21:46:24.688Z,67.18
2022-11-10T21:49:31.174Z,67.23
2022-11-10T21:52:37.516Z,67.28
2022-11-10T21:55:43.971Z,67.21
2022-11-10T21:58:50.087Z,67.46
2022-11-10T22:01:56.554Z,67.52
2022-11-10T22:05:03.352Z,67.45
2022-11-10T22:08:10.690Z,67.39
2022-11-10T22:11:38.212Z,67.47
2022-11-10T22:15:03.106Z,67.39
2022-11-10T22:18:37.443Z,67.17
2022-11-10T22:21:44.446Z,67.56
2022-11-10T22:24:50.868Z,67.66
2022-11-10T22:27:57.638Z,67.77
2022-11-10T22:31:04.777Z,67.83
2022-11-10T22:34:11.241Z,67.79
2022-11-10T22:37:17.707Z,67.89
2022-11-10T22:40:42.934Z,67.89
2022-11-10T22:44:03.900Z,68.03
2022-11-10T22:47:09.898Z,68.09
2022-11-10T22:50:16.544Z,68.11
2022-11-10T22:53:23.919Z,68.17
2022-11-10T22:56:32.185Z,68.34
2022-11-10T22:59:38.600Z,68.30
2022-11-10T23:02:45.159Z,68.25
2022-11-10T23:05:56.314Z,68.24
2022-11-10T23:09:03.389Z,68.40
2022-11-10T23:12:09.485Z,68.49
2022-11-10T23:15:15.870Z,68.26
2022-11-10T23:18:22.741Z,68.34
2022-11-10T23:21:30.434Z,68.43
2022-11-10T23:24:36.803Z,68.48
2022-11-10T23:27:43.473Z,68.56
2022-11-10T23:30:50.353Z,68.60
2022-11-10T23:33:57.867Z,68.68
2022-11-10T23:37:04.095Z,68.71
2022-11-10T23:40:10.772Z,69.09
2022-11-10T23:43:17.247Z,68.81
2022-11-10T23:46:23.740Z,68.70
2022-11-10T23:49:30.258Z,68.84
2022-11-10T23:52:36.362Z,68.75
2022-11-10T23:55:43.120Z,68.78
2022-11-10T23:58:49.514Z,68.74
